LRBSLRCK

Guest
Details From LRBS - Bucarest Baneasa
To LRCK - CONSTANTA - MIHAIL KOGALNICEANU
Flight Number -
Tags generated
Created
Modified
Stats Distance 103 nm / 190 km
Max Altitude 2,900 ft / 884 m
Waypoints 3
Social Downloads 7
Likes 0
Share VATSIM

Download

Looking for another format? Having issues loading an existing format? Contact us
Advertisement - Login to hide

Notes

Basic altitude profile: - Ascent Rate: 2500ft/min - Ascent Speed: 250kts - Cruise Altitude: 35000ft - Cruise Speed: 420kts - Descent Rate: 1500ft/min - Descent Speed: 250kts Options: - Use NATs: yes - Use PACOTS: yes - Use low airways: yes - Use high airways: yes

Route

LRBS PISIK LRCK

ID Type Via Altitude Latitude Longitude Leg Dist Tot Dist Heading (true) Name
O LRBS APT - 0 ft / 0 m 44.50319˚ 26.10211˚ - 0 nm - Bucarest Baneasa
PISIK FIX - 2,900 ft / 884 m 44.36765˚ 28.17085˚ 89 nm 89 nm 95° / 96° -
O LRCK APT - 0 ft / 0 m 44.36211˚ 28.48845˚ 13 nm 102 nm 91° / 92° CONSTANTA - MIHAIL KOGALNICEANU

Altitude Profile

Advertisement - Login to hide

LRBS

Details ICAO LRBS (BBU)
Name Bucarest Baneasa
Region Romania
Timezone Europe/Bucharest (UTC+2.0)
Stats Elevation 297 ft / 91 m (AMSL)
Location 44.503193° 26.102113°
Runways 1
Magnetic Variation 5.595° E

METAR

LRBS 140430Z 23005KT 4000 BR NSC 05/05 Q1011 R07/29//95 NOSIG

Decode

TAF

TAF TAF LRBS 132300Z 1400/1424 VRB04KT 5000 -RA BR BKN030 TEMPO 1400/1404 1500 RA BR BKN010 OVC030 BECMG 1405/1407 26010KT 9999 NSW BKN035

Decode

Departure Runways

ID Width Length Bearing (true) Bearing (mag) Surface Threshold Offset Overrun Length
07 148 ft / 45 m 10,480 ft / 3,194 m 73.93° 68.34° Concrete 787 ft / 240 m 0 ft / 0 m
25 148 ft / 45 m 10,480 ft / 3,194 m 253.96° 248.37° Concrete 2,609 ft / 795 m 0 ft / 0 m

LRCK

Details ICAO LRCK (CND)
Name CONSTANTA - MIHAIL KOGALNICEANU
Region Romania
Timezone Europe/Bucharest (UTC+2.0)
Stats Elevation 353 ft / 108 m (AMSL)
Location 44.362114° 28.488454°
Runways 1
Magnetic Variation 5.929° E

METAR

LRCK 140430Z 25008KT 3000 -RA BR NSC 05/05 Q1011 NOSIG

Decode

TAF

TAF LRCK 132300Z 1400/1424 VRB04KT CAVOK TEMPO 1402/1407 5000 -RA BR BKN010 OVC030 BECMG 1409/1411 26010KT

Decode

Destination Runways

ID Width Length Bearing (true) Bearing (mag) Surface Threshold Offset Overrun Length
18 148 ft / 45 m 11,455 ft / 3,492 m 185.57° 179.64° Concrete 0 ft / 0 m 0 ft / 0 m
36 148 ft / 45 m 11,455 ft / 3,492 m 5.57° 359.64° Concrete 0 ft / 0 m 0 ft / 0 m

Approach Navaids

Runway Type Ident Frequency Range Bearing (true) Bearing (mag) Slope Elevation
18 Localiser ICT 109.50 MHz 18 nm / 33 km 185.57° 179.64° - 353 ft / 108 m (AMSL)
18 Glidescope ICT 109.50 MHz 10 nm / 19 km 185.57° 179.64° 3.50° 353 ft / 108 m (AMSL)
36 Localiser ICK 110.30 MHz 18 nm / 33 km 5.57° 359.64° - 315 ft / 96 m (AMSL)
36 Glidescope ICK 110.30 MHz 10 nm / 19 km 5.57° 359.64° 2.50° 315 ft / 96 m (AMSL)
36 DME ICK 110.30 MHz 18 nm / 33 km - - - 353 ft / 108 m (AMSL)

Popular Alternatives